Terminal Aerodrome Forecast
Issued by NWS Duluth, MN

Home | Current Version | Previous Version | Text Only | Print | Product List | Glossary On
Versions: 1 2 3 4 5 6 7 8 9 10 11 12 13 14 15 16
000
FTUS43 KDLH 301601 AAB
TAFDLH
TAF AMD
KDLH 301601Z 3016/0112 12007KT P6SM OVC014
     FM301800 11008KT P6SM SCT020
     FM302000 10007KT P6SM SKC=

USA.gov is the U.S. government's official web portal to all federal, state and local government web resources and services.